Terminal Aerodrome Forecast
Issued by NWS Jackson, MS

Home | Current Version | Previous Version | Text Only | Print | Product List | Glossary On
Versions: 1 2 3 4 5 6 7 8 9 10 11 12 13 14 15 16 17 18
448
FTUS44 KJAN 280132 AAB
TAFJAN
TAF AMD
KJAN 280132Z 2802/2824 19007KT P6SM BKN015
     FM280300 19006KT P6SM SCT020 BKN120
     FM281000 19005KT P6SM SCT012 BKN025
     FM281500 23011KT P6SM SCT025 BKN035
     FM281800 25010KT P6SM VCTS BKN035CB=

USA.gov is the U.S. government's official web portal to all federal, state and local government web resources and services.